Time;durP1;ratioP1;P1;durP2;ratioP2;P2;SDS_P1;SDS_P2;PMS_P1;PMS_P2;Temp;Humidity;BMP_temperature;BMP_pressure;BME280_temperature;BME280_humidity;BME280_pressure;Samples;Min_cycle;Max_cycle;Signal;HPM_P1;HPM_P2
2022/07/08 00:02:03;;;;;;;1.40;0.77;;;23.00;67.60;;;-143.79;100.00;62634.88;4992520;28;20085;-57
2022/07/08 00:04:28;;;;;;;2.28;0.70;;;23.10;83.80;;;-143.79;100.00;62634.88;4992463;28;20042;-57
2022/07/08 00:06:54;;;;;;;3.00;0.90;;;;;;;-143.79;100.00;62634.88;4992592;28;20034;-58
2022/07/08 00:09:21;;;;;;;3.95;0.95;;;22.80;59.00;;;-143.79;100.00;62634.88;4992519;28;20062;-58
2022/07/08 00:11:47;;;;;;;3.08;0.70;;;23.20;84.50;;;-143.79;100.00;62634.88;4992730;28;20042;-57
2022/07/08 00:14:13;;;;;;;3.05;0.98;;;23.10;84.80;;;-143.79;100.00;62634.88;4994351;28;20397;-57
2022/07/08 00:16:40;;;;;;;3.10;0.90;;;23.10;85.20;;;-143.79;100.00;62634.88;4994999;28;20038;-58
2022/07/08 00:19:14;;;;;;;1.60;0.60;;;23.00;53.10;;;-143.79;100.00;62634.88;4996182;28;20688;-59
2022/07/08 00:21:43;;;;;;;2.45;0.80;;;22.90;85.40;;;-143.79;100.00;62634.88;4996524;28;20340;-58
2022/07/08 00:24:12;;;;;;;3.75;1.00;;;23.00;86.70;;;-143.79;100.00;62634.88;4996378;28;20053;-58
2022/07/08 00:26:38;;;;;;;3.17;0.73;;;;;;;-143.79;100.00;62634.88;4996011;28;20600;-57
2022/07/08 00:29:05;;;;;;;3.58;0.82;;;;;;;-143.79;100.00;62634.88;4996025;28;20038;-58
2022/07/08 00:31:31;;;;;;;2.55;0.90;;;;;;;-143.79;100.00;62634.88;4996108;28;20030;-58
2022/07/08 00:33:57;;;;;;;3.72;1.02;;;;;;;-143.79;100.00;62634.88;4995876;28;20501;-58
2022/07/08 00:36:23;;;;;;;2.28;0.77;;;23.00;74.30;;;-143.79;100.00;62634.88;4995852;28;20088;-58
2022/07/08 00:38:49;;;;;;;1.98;0.80;;;22.60;87.30;;;-143.79;100.00;62634.88;4996139;28;20050;-58
2022/07/08 00:41:15;;;;;;;2.72;0.93;;;23.10;88.10;;;-143.79;100.00;62634.88;4995796;28;20481;-59
2022/07/08 00:43:45;;;;;;;4.03;1.27;;;23.10;62.00;;;-143.79;100.00;62634.88;4995771;28;20157;-58
2022/07/08 00:46:12;;;;;;;3.65;0.70;;;22.90;72.70;;;-143.79;100.00;62634.88;4995962;28;20413;-59
2022/07/08 00:48:39;;;;;;;2.60;1.00;;;22.80;53.50;;;-143.79;100.00;62634.88;4995652;28;20423;-59
2022/07/08 00:51:16;;;;;;;3.67;0.82;;;22.80;87.90;;;-143.79;100.00;62634.88;4995583;28;20046;-59
2022/07/08 00:53:47;;;;;;;1.75;0.93;;;22.80;54.40;;;-143.79;100.00;62634.88;4995595;28;20042;-58
2022/07/08 00:56:14;;;;;;;3.17;0.98;;;23.00;87.60;;;-143.79;100.00;62634.88;4994404;28;20030;-58
2022/07/08 00:58:40;;;;;;;4.28;0.95;;;;;;;-143.79;100.00;62634.88;4994381;28;20034;-59
2022/07/08 01:01:07;;;;;;;2.30;1.10;;;23.00;62.80;;;-143.79;100.00;62634.88;4995344;28;20030;-57
2022/07/08 01:03:33;;;;;;;2.95;0.90;;;;;;;-143.79;100.00;62634.88;4995133;28;20145;-57
2022/07/08 01:05:59;;;;;;;2.50;0.73;;;23.00;87.70;;;-143.79;100.00;62634.88;4995546;28;20026;-57
2022/07/08 01:08:25;;;;;;;2.85;1.00;;;22.70;86.20;;;-143.79;100.00;62634.88;4995222;28;20041;-56
2022/07/08 01:10:51;;;;;;;3.22;0.88;;;22.60;88.00;;;-143.79;100.00;62634.88;4995167;28;20393;-59
2022/07/08 01:13:18;;;;;;;2.63;0.90;;;22.90;89.00;;;-143.79;100.00;62634.88;4993951;28;20394;-59
2022/07/08 01:15:46;;;;;;;2.08;0.90;;;22.80;54.00;;;-143.79;100.00;62634.88;4994111;28;20038;-58
2022/07/08 01:18:25;;;;;;;2.53;0.70;;;23.00;88.50;;;-143.79;100.00;62634.88;4995223;28;20038;-55
2022/07/08 01:20:51;;;;;;;2.30;1.00;;;22.90;88.70;;;-143.79;100.00;62634.88;4995096;28;20034;-58
2022/07/08 01:23:17;;;;;;;3.25;1.17;;;22.30;86.90;;;-143.79;100.00;62634.88;4995324;28;20404;-58
2022/07/08 01:25:43;;;;;;;3.03;0.90;;;22.50;86.20;;;-143.79;100.00;62634.88;4994920;28;20026;-56
2022/07/08 01:28:09;;;;;;;2.22;0.70;;;22.80;86.00;;;-143.79;100.00;62634.88;4994868;28;20495;-56
2022/07/08 01:30:35;;;;;;;3.28;0.68;;;23.00;86.10;;;-143.79;100.00;62634.88;4994776;28;20038;-56
2022/07/08 01:33:01;;;;;;;1.48;0.93;;;22.70;87.00;;;-143.79;100.00;62634.88;4994834;28;20389;-56
2022/07/08 01:35:26;;;;;;;3.10;0.98;;;22.60;72.40;;;-143.79;100.00;62634.88;4993544;28;20030;-56
2022/07/08 01:37:52;;;;;;;3.20;0.88;;;;;;;-143.79;100.00;62634.88;4994723;28;20026;-56
2022/07/08 01:40:18;;;;;;;2.55;0.70;;;;;;;-143.79;100.00;62634.88;4994585;28;20034;-56
2022/07/08 01:42:44;;;;;;;1.23;0.60;;;;;;;-143.79;100.00;62634.88;4994627;28;20069;-57
2022/07/08 01:45:11;;;;;;;2.20;0.90;;;;;;;-143.79;100.00;62634.88;4994620;28;20053;-56
2022/07/08 01:47:37;;;;;;;2.90;1.13;;;22.50;88.40;;;-143.79;100.00;62634.88;4994596;28;20517;-56
2022/07/08 01:50:03;;;;;;;1.83;0.70;;;22.90;88.90;;;-143.79;100.00;62634.88;4994550;28;20045;-56
2022/07/08 01:52:29;;;;;;;2.50;0.80;;;22.80;89.00;;;-143.79;100.00;62634.88;4994639;28;20069;-55
2022/07/08 01:54:54;;;;;;;3.45;0.88;;;22.70;89.00;;;-143.79;100.00;62634.88;4994568;28;20058;-56
2022/07/08 01:57:21;;;;;;;3.25;0.82;;;22.70;64.60;;;-143.79;100.00;62634.88;4994419;28;20113;-55
2022/07/08 01:59:50;;;;;;;3.35;1.17;;;23.00;89.10;;;-143.79;100.00;62634.88;4994365;28;20034;-58
2022/07/08 02:02:21;;;;;;;2.58;1.00;;;22.70;54.80;;;-143.79;100.00;62634.88;4994164;28;20038;-56
2022/07/08 02:04:47;;;;;;;2.88;0.93;;;22.70;84.50;;;-143.79;100.00;62634.88;4994096;28;20382;-56
2022/07/08 02:07:14;;;;;;;2.22;0.82;;;22.60;88.80;;;-143.79;100.00;62634.88;4994112;28;20038;-56
2022/07/08 02:09:41;;;;;;;3.10;1.00;;;22.50;88.90;;;-143.79;100.00;62634.88;4994084;28;20113;-56
2022/07/08 02:12:20;;;;;;;1.92;0.70;;;22.50;65.80;;;-143.79;100.00;62634.88;4994109;28;20454;-56
2022/07/08 02:15:01;;;;;;;2.05;0.80;;;22.70;88.60;;;-143.79;100.00;62634.88;4994354;28;20026;-56
2022/07/08 02:17:29;;;;;;;1.85;0.60;;;22.60;88.80;;;-143.79;100.00;62634.88;4994242;28;20049;-56
2022/07/08 02:19:55;;;;;;;3.58;0.77;;;22.80;88.80;;;-143.79;100.00;62634.88;4993994;28;20034;-56
2022/07/08 02:22:21;;;;;;;2.08;0.77;;;22.90;89.00;;;-143.79;100.00;62634.88;4993908;28;20044;-55
2022/07/08 02:24:47;;;;;;;2.55;1.00;;;22.70;88.90;;;-143.79;100.00;62634.88;4993814;28;20125;-56
2022/07/08 02:27:13;;;;;;;2.28;0.85;;;22.60;88.90;;;-143.79;100.00;62634.88;4993755;28;20038;-56
2022/07/08 02:29:39;;;;;;;1.13;0.50;;;22.40;88.80;;;-143.79;100.00;62634.88;4993715;28;20031;-56
2022/07/08 02:32:05;;;;;;;0.82;0.50;;;22.60;89.00;;;-143.79;100.00;62634.88;4993608;28;20034;-56
2022/07/08 02:34:32;;;;;;;4.07;1.00;;;;;;;-143.79;100.00;62634.88;4993855;28;20389;-56
2022/07/08 02:36:57;;;;;;;2.90;0.80;;;22.60;84.00;;;-143.79;100.00;62634.88;4993098;28;20038;-57
2022/07/08 02:39:23;;;;;;;2.47;1.13;;;22.70;88.50;;;-143.79;100.00;62634.88;4993597;28;20045;-57
2022/07/08 02:41:49;;;;;;;3.17;1.20;;;22.80;89.10;;;-143.79;100.00;62634.88;4993528;28;20039;-58
2022/07/08 02:44:17;;;;;;;1.55;0.57;;;22.70;89.00;;;-143.79;100.00;62634.88;4993520;28;20500;-57
2022/07/08 02:46:43;;;;;;;3.30;0.95;;;22.40;88.40;;;-143.79;100.00;62634.88;4993686;28;20397;-57
2022/07/08 02:49:09;;;;;;;2.28;0.98;;;22.60;83.10;;;-143.79;100.00;62634.88;4993550;28;20041;-58
2022/07/08 02:51:36;;;;;;;2.20;0.65;;;22.70;89.00;;;-143.79;100.00;62634.88;4993271;28;20046;-58
2022/07/08 02:54:03;;;;;;;3.83;0.93;;;22.50;88.80;;;-143.79;100.00;62634.88;4993351;28;20481;-58
2022/07/08 02:56:29;;;;;;;2.28;0.70;;;22.60;73.00;;;-143.79;100.00;62634.88;4993519;28;20045;-57
2022/07/08 02:58:55;;;;;;;2.83;0.98;;;;;;;-143.79;100.00;62634.88;4993291;28;20034;-57
2022/07/08 03:01:20;;;;;;;2.00;0.70;;;22.80;88.80;;;-143.79;100.00;62634.88;4993458;28;20053;-57
2022/07/08 03:03:46;;;;;;;1.73;0.50;;;22.30;57.60;;;-143.79;100.00;62634.88;4993041;28;20665;-57
2022/07/08 03:06:12;;;;;;;2.80;0.88;;;22.50;53.70;;;-143.79;100.00;62634.88;4993313;28;20038;-57
2022/07/08 03:08:39;;;;;;;1.80;0.90;;;22.40;57.50;;;-143.79;100.00;62634.88;4993478;28;20372;-58
2022/07/08 03:11:05;;;;;;;3.70;0.88;;;22.60;89.40;;;-143.79;100.00;62634.88;4993125;28;20038;-58
2022/07/08 03:13:31;;;;;;;2.28;0.85;;;22.30;69.80;;;-143.79;100.00;62634.88;4991803;28;20046;-57
2022/07/08 03:15:58;;;;;;;3.92;0.63;;;22.50;88.70;;;-143.79;100.00;62634.88;4993288;28;20049;-57
2022/07/08 03:18:24;;;;;;;3.33;1.13;;;22.70;89.20;;;-143.79;100.00;62634.88;4993039;28;20038;-57
2022/07/08 03:20:50;;;;;;;1.42;0.73;;;;;;;-143.79;100.00;62634.88;4992988;28;20081;-57
2022/07/08 03:23:16;;;;;;;1.83;0.77;;;;;;;-143.79;100.00;62634.88;4993045;28;20034;-58
2022/07/08 03:25:42;;;;;;;4.65;0.70;;;;;;;-143.79;100.00;62634.88;4993197;28;20025;-58
2022/07/08 03:28:08;;;;;;;2.28;0.88;;;;;;;-143.79;100.00;62634.88;4992893;28;20030;-58
2022/07/08 03:30:34;;;;;;;2.78;0.73;;;;;;;-143.79;100.00;62634.88;4992789;28;20073;-58
2022/07/08 03:33:01;;;;;;;2.42;0.90;;;;;;;-143.79;100.00;62634.88;4992902;28;20040;-58
2022/07/08 03:35:27;;;;;;;1.88;0.77;;;;;;;-143.79;100.00;62634.88;4992845;28;20065;-58
2022/07/08 03:37:52;;;;;;;2.53;1.00;;;22.70;76.00;;;-143.79;100.00;62634.88;4992795;28;20026;-58
2022/07/08 03:41:19;;;;;;;4.40;0.80;;;;;;;-143.79;100.00;62634.88;4992768;28;20035;-58
2022/07/08 03:43:04;;;;;;;1.85;0.73;;;;;;;-143.79;100.00;62634.88;4992679;28;20026;-57
2022/07/08 03:45:30;;;;;;;1.80;0.68;;;;;;;-143.79;100.00;62634.88;4992755;28;20497;-58
2022/07/08 03:47:56;;;;;;;2.13;0.73;;;;;;;-143.79;100.00;62634.88;4992730;28;20038;-58
2022/07/08 03:50:22;;;;;;;1.88;0.60;;;22.60;58.20;;;-143.79;100.00;62634.88;4996260;28;20452;-58
2022/07/08 03:52:48;;;;;;;2.72;0.60;;;;;;;-143.79;100.00;62634.88;4996620;28;20034;-58
2022/07/08 03:55:14;;;;;;;3.22;0.95;;;22.70;61.80;;;-143.79;100.00;62634.88;4996598;28;20038;-57
2022/07/08 03:57:40;;;;;;;2.72;0.70;;;;;;;-143.79;100.00;62634.88;4996841;28;20030;-58
2022/07/08 04:00:07;;;;;;;2.42;0.65;;;22.50;55.20;;;-143.79;100.00;62634.88;4996525;28;20034;-58
2022/07/08 04:02:34;;;;;;;1.77;1.00;;;22.60;89.80;;;-143.79;100.00;62634.88;4996766;28;20389;-58
2022/07/08 04:05:00;;;;;;;2.78;0.75;;;;;;;-143.79;100.00;62634.88;4996341;28;20524;-57
2022/07/08 04:07:26;;;;;;;2.40;0.63;;;;;;;-143.79;100.00;62634.88;4996427;28;20397;-57
2022/07/08 04:09:52;;;;;;;2.13;0.70;;;;;;;-143.79;100.00;62634.88;4996293;28;20038;-57
2022/07/08 04:12:18;;;;;;;3.92;1.13;;;;;;;-143.79;100.00;62634.88;4996209;28;20370;-57
2022/07/08 04:14:44;;;;;;;5.43;1.20;;;;;;;-143.79;100.00;62634.88;4996293;28;20038;-58
2022/07/08 04:17:11;;;;;;;1.05;0.60;;;;;;;-143.79;100.00;62634.88;4996188;28;20037;-57
2022/07/08 04:19:37;;;;;;;2.80;0.90;;;;;;;-143.79;100.00;62634.88;4996217;28;20065;-58
2022/07/08 04:22:03;;;;;;;1.88;1.10;;;22.70;70.70;;;-143.79;100.00;62634.88;4996240;28;20086;-58
2022/07/08 04:24:28;;;;;;;2.72;0.85;;;22.50;78.30;;;-143.79;100.00;62634.88;4996312;28;20042;-58
2022/07/08 04:26:54;;;;;;;2.78;0.82;;;;;;;-143.79;100.00;62634.88;4996069;28;20022;-57
2022/07/08 04:29:20;;;;;;;2.15;0.73;;;;;;;-143.79;100.00;62634.88;4996258;28;20042;-58
2022/07/08 04:31:46;;;;;;;3.85;0.90;;;;;;;-143.79;100.00;62634.88;4996171;28;20454;-58
2022/07/08 04:34:12;;;;;;;3.65;1.15;;;;;;;-143.79;100.00;62634.88;4995860;28;20057;-58
2022/07/08 04:36:39;;;;;;;2.25;1.05;;;;;;;-143.79;100.00;62634.88;4995859;28;20043;-58
2022/07/08 04:39:05;;;;;;;2.25;0.82;;;;;;;-143.79;100.00;62634.88;4995865;28;20030;-58
2022/07/08 04:41:31;;;;;;;1.70;0.90;;;;;;;-143.79;100.00;62634.88;4995806;28;20062;-58
2022/07/08 04:43:56;;;;;;;2.95;1.00;;;21.90;74.20;;;-143.79;100.00;62634.88;4995690;28;20489;-58
2022/07/08 04:46:22;;;;;;;2.75;0.85;;;;;;;-143.79;100.00;62634.88;4995709;28;20042;-58
2022/07/08 04:48:48;;;;;;;1.35;0.50;;;;;;;-143.79;100.00;62634.88;4995632;28;20038;-58
2022/07/08 04:51:14;;;;;;;3.00;0.80;;;;;;;-143.79;100.00;62634.88;4995395;28;20485;-58
2022/07/08 04:53:40;;;;;;;3.72;1.00;;;;;;;-143.79;100.00;62634.88;4995613;28;20041;-58
2022/07/08 04:56:06;;;;;;;2.17;0.77;;;22.20;63.90;;;-143.79;100.00;62634.88;4995555;28;20034;-58
2022/07/08 04:58:32;;;;;;;1.90;0.65;;;;;;;-143.79;100.00;62634.88;4995659;28;20037;-58
2022/07/08 05:00:58;;;;;;;2.78;0.88;;;22.50;60.30;;;-143.79;100.00;62634.88;4995073;28;20042;-58
2022/07/08 05:03:24;;;;;;;5.28;1.05;;;;;;;-143.79;100.00;62634.88;4995355;28;20121;-58
2022/07/08 05:05:50;;;;;;;2.85;0.80;;;;;;;-143.79;100.00;62634.88;4995402;28;20109;-58
2022/07/08 05:08:17;;;;;;;3.92;1.10;;;;;;;-143.79;100.00;62634.88;4995282;28;20038;-58
2022/07/08 05:10:43;;;;;;;1.92;1.13;;;;;;;-143.79;100.00;62634.88;4995150;28;20030;-58
2022/07/08 05:13:09;;;;;;;3.33;1.15;;;;;;;-143.79;100.00;62634.88;4995149;28;20041;-58
2022/07/08 05:15:35;;;;;;;1.90;0.75;;;22.50;89.50;;;-143.79;100.00;62634.88;4995232;28;20555;-60
2022/07/08 05:18:01;;;;;;;4.07;0.90;;;22.60;89.30;;;-143.79;100.00;62634.88;4995539;28;20042;-59
2022/07/08 05:20:27;;;;;;;2.85;0.90;;;22.60;80.40;;;-143.79;100.00;62634.88;4995059;28;20041;-59
2022/07/08 05:22:53;;;;;;;3.00;1.55;;;;;;;-143.79;100.00;62634.88;4995372;28;20117;-59
2022/07/08 05:25:18;;;;;;;2.42;1.25;;;22.50;66.20;;;-143.79;100.00;62634.88;4995234;28;20389;-59
2022/07/08 05:27:44;;;;;;;3.50;1.20;;;22.30;54.50;;;-143.79;100.00;62634.88;4994944;28;20058;-59
2022/07/08 05:30:11;;;;;;;4.28;1.40;;;22.40;55.40;;;-143.79;100.00;62634.88;4994723;28;20054;-59
2022/07/08 05:32:37;;;;;;;4.07;1.10;;;22.30;89.10;;;-143.79;100.00;62634.88;4994673;28;20125;-59
2022/07/08 05:35:05;;;;;;;5.20;1.38;;;22.10;89.40;;;-143.79;100.00;62634.88;4994790;28;20035;-59
2022/07/08 05:37:32;;;;;;;2.45;1.30;;;22.30;54.30;;;-143.79;100.00;62634.88;4993314;28;20038;-59
2022/07/08 05:39:58;;;;;;;2.90;0.90;;;22.40;89.00;;;-143.79;100.00;62634.88;4994867;28;20178;-59
2022/07/08 05:42:24;;;;;;;3.55;0.98;;;;;;;-143.79;100.00;62634.88;4994819;28;20035;-59
2022/07/08 05:44:50;;;;;;;7.35;1.10;;;;;;;-143.79;100.00;62634.88;4994501;28;20042;-59
2022/07/08 05:47:17;;;;;;;1.25;0.90;;;;;;;-143.79;100.00;62634.88;4994480;28;20041;-58
2022/07/08 05:49:46;;;;;;;2.25;1.45;;;;;;;-143.79;100.00;62634.88;4994580;28;20429;-57
2022/07/08 05:52:12;;;;;;;4.28;1.08;;;22.20;66.50;;;-143.79;100.00;62634.88;4994519;28;20077;-55
2022/07/08 05:54:38;;;;;;;3.05;1.00;;;22.50;89.80;;;-143.79;100.00;62634.88;4994739;28;20039;-56
2022/07/08 05:57:04;;;;;;;2.95;1.00;;;22.50;89.60;;;-143.79;100.00;62634.88;4994563;28;20061;-55
2022/07/08 05:59:31;;;;;;;4.15;1.30;;;;;;;-143.79;100.00;62634.88;4994336;28;20057;-56
2022/07/08 06:01:57;;;;;;;5.03;1.10;;;22.40;67.20;;;-143.79;100.00;62634.88;4994017;28;20457;-56
2022/07/08 06:04:22;;;;;;;3.42;0.90;;;22.60;73.30;;;-143.79;100.00;62634.88;4993846;28;20074;-56
2022/07/08 06:06:48;;;;;;;5.25;0.80;;;22.50;54.50;;;-143.79;100.00;62634.88;4993989;28;20068;-55
2022/07/08 06:09:15;;;;;;;3.85;0.90;;;;;;;-143.79;100.00;62634.88;4994388;28;20030;-56
2022/07/08 06:11:40;;;;;;;4.10;0.90;;;22.70;59.20;;;-143.79;100.00;62634.88;4993776;28;20058;-55
2022/07/08 06:14:06;;;;;;;4.13;1.55;;;;;;;-143.79;100.00;62634.88;4993967;28;20072;-56
2022/07/08 06:16:33;;;;;;;3.58;1.00;;;;;;;-143.79;100.00;62634.88;4994133;28;20072;-53
2022/07/08 06:18:59;;;;;;;2.08;0.80;;;;;;;-143.79;100.00;62634.88;4993862;28;20034;-56
2022/07/08 06:21:25;;;;;;;5.32;1.33;;;;;;;-143.79;100.00;62634.88;4993806;28;20043;-55
2022/07/08 06:23:50;;;;;;;2.78;1.15;;;22.30;66.80;;;-143.79;100.00;62634.88;4993854;28;20390;-56
2022/07/08 06:26:17;;;;;;;2.83;0.85;;;;;;;-143.79;100.00;62634.88;4993901;28;20031;-55
2022/07/08 06:28:43;;;;;;;7.90;1.00;;;22.30;90.00;;;-143.79;100.00;62634.88;4993990;28;20037;-56
2022/07/08 06:31:09;;;;;;;2.70;0.95;;;22.30;90.50;;;-143.79;100.00;62634.88;4993662;28;20035;-57
2022/07/08 06:33:35;;;;;;;4.60;0.70;;;22.20;90.60;;;-143.79;100.00;62634.88;4993639;28;20504;-57
2022/07/08 06:36:01;;;;;;;3.95;0.90;;;;;;;-143.79;100.00;62634.88;4993596;28;20041;-56
2022/07/08 06:38:26;;;;;;;3.50;0.80;;;21.90;77.60;;;-143.79;100.00;62634.88;4993780;28;20436;-56
2022/07/08 06:40:52;;;;;;;3.15;0.73;;;;;;;-143.79;100.00;62634.88;4993834;28;20030;-57
2022/07/08 06:43:18;;;;;;;3.17;1.10;;;;;;;-143.79;100.00;62634.88;4993407;28;20034;-56
2022/07/08 06:45:46;;;;;;;3.17;1.00;;;;;;;-143.79;100.00;62634.88;4993400;28;20034;-55
2022/07/08 06:48:12;;;;;;;3.45;0.90;;;22.40;90.60;;;-143.79;100.00;62634.88;4993652;28;20030;-55
2022/07/08 06:50:38;;;;;;;2.53;1.08;;;;;;;-143.79;100.00;62634.88;4993490;28;20445;-56
2022/07/08 06:53:04;;;;;;;3.47;0.90;;;;;;;-143.79;100.00;62634.88;4993589;28;20034;-57
2022/07/08 06:55:30;;;;;;;4.70;1.10;;;;;;;-143.79;100.00;62634.88;4993260;28;20045;-56
2022/07/08 06:57:57;;;;;;;3.67;1.00;;;;;;;-143.79;100.00;62634.88;4993243;28;20031;-55
2022/07/08 07:00:23;;;;;;;1.38;0.60;;;22.40;90.60;;;-143.79;100.00;62634.88;4993103;28;20038;-56
2022/07/08 07:02:49;;;;;;;4.60;1.00;;;22.70;73.60;;;-143.79;100.00;62634.88;4992775;28;20036;-57
2022/07/08 07:05:16;;;;;;;1.70;0.73;;;21.90;90.60;;;-143.79;100.00;62634.88;4993496;28;20443;-56
2022/07/08 07:07:41;;;;;;;2.95;0.77;;;22.60;90.90;;;-143.79;100.00;62634.88;4993188;28;20077;-56
2022/07/08 07:10:08;;;;;;;5.82;1.27;;;22.70;90.40;;;-143.79;100.00;62634.88;4993113;28;20065;-56
2022/07/08 07:12:34;;;;;;;2.30;0.75;;;22.30;90.60;;;-143.79;100.00;62634.88;4992992;28;20062;-56
2022/07/08 07:15:00;;;;;;;3.42;0.75;;;22.60;90.50;;;-143.79;100.00;62634.88;4992912;28;20034;-55
2022/07/08 07:17:25;;;;;;;4.63;1.15;;;22.60;90.40;;;-143.79;100.00;62634.88;4992989;28;20068;-56
2022/07/08 07:19:51;;;;;;;2.47;0.90;;;22.70;90.40;;;-143.79;100.00;62634.88;4993157;28;20042;-56
2022/07/08 07:22:18;;;;;;;2.38;1.05;;;22.60;90.50;;;-143.79;100.00;62634.88;4992859;28;20404;-56
2022/07/08 07:24:44;;;;;;;3.20;0.85;;;22.70;90.10;;;-143.79;100.00;62634.88;4993217;28;20425;-57
2022/07/08 07:27:10;;;;;;;2.85;1.05;;;22.60;90.20;;;-143.79;100.00;62634.88;4992816;28;20034;-55
2022/07/08 07:29:36;;;;;;;2.17;1.00;;;22.40;80.30;;;-143.79;100.00;62634.88;4992720;28;20371;-55
2022/07/08 07:32:02;;;;;;;2.72;0.90;;;22.50;90.30;;;-143.79;100.00;62634.88;4992981;28;20042;-56
2022/07/08 07:34:28;;;;;;;2.35;0.90;;;;;;;-143.79;100.00;62634.88;4992707;28;20038;-55
2022/07/08 07:36:55;;;;;;;2.35;0.60;;;;;;;-143.79;100.00;62634.88;4992850;28;20452;-56
2022/07/08 07:39:20;;;;;;;3.58;0.70;;;22.30;69.50;;;-143.79;100.00;62634.88;4992688;28;20039;-55
2022/07/08 07:41:46;;;;;;;1.63;0.70;;;;;;;-143.79;100.00;62634.88;4992697;28;20441;-55
2022/07/08 07:44:13;;;;;;;1.30;0.60;;;;;;;-143.79;100.00;62634.88;4992743;28;20074;-55
2022/07/08 07:46:39;;;;;;;3.55;0.80;;;;;;;-143.79;100.00;62634.88;4992527;28;20031;-55
2022/07/08 07:49:05;;;;;;;1.98;0.85;;;;;;;-143.79;100.00;62634.88;4992572;28;20411;-55
2022/07/08 07:51:31;;;;;;;2.33;0.75;;;;;;;-143.79;100.00;62634.88;4992412;28;20034;-55
2022/07/08 07:53:56;;;;;;;6.25;1.17;;;22.70;74.80;;;-143.79;100.00;62634.88;4992488;28;20513;-55
2022/07/08 07:56:23;;;;;;;3.28;0.85;;;23.10;55.40;;;-143.79;100.00;62634.88;4992536;28;20097;-56
2022/07/08 07:58:49;;;;;;;1.95;0.73;;;22.10;80.60;;;-143.79;100.00;62634.88;4992304;28;20026;-55
2022/07/08 08:01:15;;;;;;;3.65;0.98;;;;;;;-143.79;100.00;62634.88;4992341;28;20045;-55
2022/07/08 08:03:41;;;;;;;1.73;0.70;;;;;;;-143.79;100.00;62634.88;4992134;28;20034;-57
2022/07/08 08:06:07;;;;;;;2.53;0.98;;;22.80;90.00;;;-143.79;100.00;62634.88;4992282;28;20053;-55
2022/07/08 08:08:34;;;;;;;2.80;0.65;;;22.70;90.50;;;-143.79;100.00;62634.88;4992477;28;20041;-56
2022/07/08 08:11:01;;;;;;;1.33;0.60;;;22.70;90.10;;;-143.79;100.00;62634.88;4992353;28;20042;-56
2022/07/08 08:13:28;;;;;;;3.50;1.05;;;22.60;90.40;;;-143.79;100.00;62634.88;4992744;28;20456;-56
2022/07/08 08:15:54;;;;;;;2.63;0.70;;;22.60;90.10;;;-143.79;100.00;62634.88;4992341;28;20045;-55
2022/07/08 08:18:21;;;;;;;2.38;0.73;;;;;;;-143.79;100.00;62634.88;4992246;28;20045;-56
2022/07/08 08:20:47;;;;;;;4.35;1.10;;;22.80;62.20;;;-143.79;100.00;62634.88;4992318;28;20042;-55
2022/07/08 08:23:13;;;;;;;2.50;1.10;;;22.60;89.30;;;-143.79;100.00;62634.88;4991961;28;20034;-55
2022/07/08 08:25:39;;;;;;;2.35;0.50;;;;;;;-143.79;100.00;62634.88;4992070;28;20393;-56
2022/07/08 08:28:05;;;;;;;1.75;0.57;;;23.10;90.00;;;-143.79;100.00;62634.88;4992017;28;20033;-55
2022/07/08 08:30:31;;;;;;;2.78;1.00;;;22.70;80.60;;;-143.79;100.00;62634.88;4991992;28;20117;-55
2022/07/08 08:32:57;;;;;;;1.98;0.88;;;22.70;65.20;;;-143.79;100.00;62634.88;4991990;28;20478;-56
2022/07/08 08:35:24;;;;;;;2.08;0.70;;;22.20;74.70;;;-143.79;100.00;62634.88;4993952;28;20031;-56
2022/07/08 08:37:50;;;;;;;1.35;0.68;;;22.80;89.80;;;-143.79;100.00;62634.88;4996034;28;20031;-54
2022/07/08 08:40:19;;;;;;;2.05;0.75;;;22.50;89.70;;;-143.79;100.00;62634.88;4995695;28;20035;-56
2022/07/08 08:42:45;;;;;;;3.57;0.80;;;22.80;90.60;;;-143.79;100.00;62634.88;4994308;28;20031;-54
2022/07/08 08:45:11;;;;;;;1.67;0.68;;;22.90;83.50;;;-143.79;100.00;62634.88;4995539;28;20034;-55
2022/07/08 08:47:37;;;;;;;1.88;0.65;;;22.80;63.20;;;-143.79;100.00;62634.88;4995505;28;20374;-55
2022/07/08 08:52:56;;;;;;;2.27;0.57;;;22.90;57.10;;;-143.79;100.00;62634.88;4995406;28;20073;-55
2022/07/08 08:55:28;;;;;;;2.20;0.57;;;22.60;90.50;;;-143.79;100.00;62634.88;4995426;28;20492;-55
2022/07/08 08:57:57;;;;;;;3.60;0.90;;;22.20;90.40;;;-143.79;100.00;62634.88;4995490;28;20046;-56
2022/07/08 09:00:27;;;;;;;5.05;1.00;;;22.70;90.50;;;-143.79;100.00;62634.88;4994998;28;20038;-56
2022/07/08 09:02:54;;;;;;;3.45;0.70;;;22.70;69.90;;;-143.79;100.00;62634.88;4995073;28;20358;-56
2022/07/08 09:05:21;;;;;;;3.28;0.70;;;23.00;89.70;;;-143.79;100.00;62634.88;4995291;28;20045;-55
2022/07/08 09:07:47;;;;;;;3.28;0.85;;;22.80;66.00;;;-143.79;100.00;62634.88;4995325;28;20552;-55
2022/07/08 09:10:16;;;;;;;3.35;0.73;;;22.70;68.60;;;-143.79;100.00;62634.88;4995389;28;20027;-55
2022/07/08 09:13:05;;;;;;;2.00;0.70;;;23.00;53.10;;;-143.79;100.00;62634.88;4994818;28;20034;-56
2022/07/08 09:15:35;;;;;;;1.95;0.90;;;;;;;-143.79;100.00;62634.88;4995454;28;20038;-56
2022/07/08 09:18:03;;;;;;;;;;;23.00;52.90;;;-143.79;100.00;62634.88;4995524;28;20100;-55
2022/07/08 09:20:51;;;;;;;6.18;0.95;;;23.10;87.30;;;-143.79;100.00;62634.88;4994983;28;19920;-56
2022/07/08 09:23:29;;;;;;;4.60;0.95;;;22.80;63.70;;;-143.79;100.00;62634.88;4994977;28;20551;-56
2022/07/08 09:26:07;;;;;;;3.22;1.23;;;23.10;61.90;;;-143.79;100.00;62634.88;4994855;28;20038;-55
2022/07/08 09:28:44;;;;;;;6.25;1.20;;;23.20;54.10;;;-143.79;100.00;62634.88;4994662;28;20046;-55
2022/07/08 09:31:12;;;;;;;7.50;1.00;;;23.10;88.00;;;-143.79;100.00;62634.88;4994577;28;20469;-54
2022/07/08 09:33:39;;;;;;;4.15;0.90;;;23.30;53.60;;;-143.79;100.00;62634.88;4994650;28;20033;-55
2022/07/08 09:36:07;;;;;;;6.22;1.20;;;23.10;75.30;;;-143.79;100.00;62634.88;4994572;28;20420;-55
2022/07/08 09:38:36;;;;;;;3.65;0.98;;;23.50;76.30;;;-143.79;100.00;62634.88;4994348;28;20026;-56
2022/07/08 09:41:12;;;;;;;5.63;1.23;;;23.30;54.70;;;-143.79;100.00;62634.88;4994459;28;20031;-56
2022/07/08 09:43:48;;;;;;;3.83;1.23;;;23.40;52.40;;;-143.79;100.00;62634.88;4994748;28;20377;-56
2022/07/08 09:46:14;;;;;;;3.08;0.93;;;23.40;65.50;;;-143.79;100.00;62634.88;4993774;28;20040;-56
2022/07/08 09:48:40;;;;;;;4.78;1.05;;;;;;;-143.79;100.00;62634.88;4994390;28;20105;-56
2022/07/08 09:51:10;;;;;;;5.38;1.10;;;;;;;-143.79;100.00;62634.88;4994543;28;20030;-55
2022/07/08 09:53:40;;;;;;;3.53;0.88;;;23.70;89.40;;;-143.79;100.00;62634.88;4994653;28;20027;-52
2022/07/08 09:56:07;;;;;;;2.97;1.10;;;23.60;54.70;;;-143.79;100.00;62634.88;4994298;28;20042;-56
2022/07/08 09:58:35;;;;;;;2.85;0.82;;;23.40;87.60;;;-143.79;100.00;62634.88;4994222;28;20097;-56
2022/07/08 10:01:01;;;;;;;4.15;1.02;;;;;;;-143.79;100.00;62634.88;4994378;28;20026;-55
2022/07/08 10:03:28;;;;;;;2.75;0.68;;;23.60;53.30;;;-143.79;100.00;62634.88;4993728;28;20046;-55
2022/07/08 10:05:54;;;;;;;5.35;0.98;;;23.60;52.90;;;-143.79;100.00;62634.88;4994035;28;20489;-56
2022/07/08 10:08:23;;;;;;;8.48;1.00;;;24.20;54.00;;;-143.79;100.00;62634.88;4994037;28;20125;-56
2022/07/08 10:10:49;;;;;;;2.58;0.70;;;;;;;-143.79;100.00;62634.88;4993982;28;20505;-55
2022/07/08 10:13:16;;;;;;;3.88;0.93;;;;;;;-143.79;100.00;62634.88;4994317;28;20054;-55
2022/07/08 10:15:43;;;;;;;7.93;1.20;;;23.90;88.70;;;-143.79;100.00;62634.88;4992802;28;20085;-55
2022/07/08 10:18:19;;;;;;;5.75;1.10;;;23.80;79.00;;;-143.79;100.00;62634.88;4993870;28;20038;-55
2022/07/08 10:20:55;;;;;;;3.80;0.90;;;23.70;53.90;;;-143.79;100.00;62634.88;4992786;28;20398;-56
2022/07/08 10:23:33;;;;;;;1.80;0.55;;;24.00;88.00;;;-143.79;100.00;62634.88;4993822;28;20034;-53
2022/07/08 10:26:01;;;;;;;3.35;0.73;;;23.70;86.50;;;-143.79;100.00;62634.88;4992672;28;20039;-55